createdAt,value
2022-08-28T00:01:48.275Z,33.13
2022-08-28T00:04:18.326Z,33.80
2022-08-28T00:06:48.418Z,34.38
2022-08-28T00:09:21.191Z,35.08
2022-08-28T00:11:51.139Z,32.15
2022-08-28T00:14:21.287Z,33.90
2022-08-28T00:16:51.287Z,35.03
2022-08-28T00:19:22.965Z,36.30
2022-08-28T00:21:53.993Z,35.03
2022-08-28T00:24:26.420Z,34.60
2022-08-28T00:27:08.744Z,34.60
2022-08-28T00:29:38.874Z,35.05
2022-08-28T00:32:09.645Z,32.08
2022-08-28T00:34:39.571Z,32.97
2022-08-28T00:37:09.623Z,32.08
2022-08-28T00:39:42.085Z,33.90
2022-08-28T00:42:12.291Z,34.10
2022-08-28T00:44:42.336Z,30.75
2022-08-28T00:47:12.612Z,32.90
2022-08-28T00:49:52.112Z,32.70
2022-08-28T00:52:20.688Z,35.10
2022-08-28T00:54:58.502Z,32.38
2022-08-28T00:57:33.255Z,31.98
2022-08-28T01:00:03.245Z,34.97
2022-08-28T01:02:33.277Z,31.10
2022-08-28T01:05:03.288Z,34.88
2022-08-28T01:07:33.345Z,31.95
2022-08-28T01:10:08.658Z,34.35
2022-08-28T01:12:39.003Z,33.15
2022-08-28T01:15:13.997Z,35.10
2022-08-28T01:17:49.070Z,37.65
2022-08-28T01:20:23.805Z,45.00
2022-08-28T01:23:01.837Z,35.65
2022-08-28T01:25:36.599Z,38.22
2022-08-28T01:28:09.058Z,36.40
2022-08-28T01:30:39.546Z,39.17
2022-08-28T01:33:09.496Z,39.47
2022-08-28T01:35:45.953Z,42.22
2022-08-28T01:40:57.257Z,42.13
2022-08-28T01:43:29.028Z,40.10
2022-08-28T01:46:02.122Z,40.03
2022-08-28T01:48:35.063Z,41.58
2022-08-28T01:51:05.838Z,40.13
2022-08-28T01:53:36.621Z,45.55
2022-08-28T01:56:12.570Z,46.25
2022-08-28T01:58:43.545Z,45.63
2022-08-28T02:01:14.569Z,51.50
2022-08-28T02:03:45.427Z,56.20
2022-08-28T02:06:15.824Z,50.65
2022-08-28T02:08:46.720Z,53.67
2022-08-28T02:11:19.748Z,53.92
2022-08-28T02:13:50.814Z,52.15
2022-08-28T02:16:21.206Z,48.30
2022-08-28T02:18:51.637Z,51.90
2022-08-28T02:21:22.227Z,57.17
2022-08-28T02:23:52.128Z,56.15
2022-08-28T02:26:24.740Z,53.90
2022-08-28T02:28:54.635Z,48.30
2022-08-28T02:31:24.538Z,48.60
2022-08-28T02:33:55.596Z,52.50
2022-08-28T02:36:26.267Z,55.05
2022-08-28T02:38:57.920Z,53.70
2022-08-28T02:41:30.971Z,48.58
2022-08-28T02:44:00.783Z,50.55
2022-08-28T02:46:30.825Z,53.22
2022-08-28T02:49:00.635Z,59.40
2022-08-28T02:51:33.661Z,56.92
2022-08-28T02:54:04.255Z,54.75
2022-08-28T02:56:36.639Z,61.22
2022-08-28T02:59:06.834Z,56.70
2022-08-28T03:01:36.949Z,62.25
2022-08-28T03:04:07.139Z,50.22
2022-08-28T03:06:37.109Z,53.85
2022-08-28T03:09:07.516Z,50.88
2022-08-28T03:11:43.527Z,52.90
2022-08-28T03:14:13.387Z,55.22
2022-08-28T03:16:43.384Z,51.88
2022-08-28T03:19:13.276Z,53.03
2022-08-28T03:21:43.172Z,50.05
2022-08-28T03:24:10.696Z,56.00
2022-08-28T03:26:47.619Z,51.85
2022-08-28T03:29:17.462Z,53.97
2022-08-28T03:31:47.590Z,49.35
2022-08-28T03:34:17.467Z,46.08
2022-08-28T03:36:47.369Z,51.17
2022-08-28T03:39:17.227Z,44.28
2022-08-28T03:41:49.715Z,47.67
2022-08-28T03:44:19.616Z,49.83
2022-08-28T03:46:49.493Z,46.40
2022-08-28T03:49:19.925Z,46.25
2022-08-28T03:51:50.788Z,46.35
2022-08-28T03:54:20.588Z,46.10
2022-08-28T03:56:53.479Z,45.00
2022-08-28T03:59:29.746Z,44.67
2022-08-28T04:02:03.501Z,43.38
2022-08-28T04:04:33.367Z,44.22
2022-08-28T04:07:03.197Z,43.33
2022-08-28T04:09:33.108Z,41.45
2022-08-28T04:12:06.309Z,40.88
2022-08-28T04:14:36.329Z,46.63
2022-08-28T04:17:06.949Z,45.50
2022-08-28T04:19:38.033Z,43.25
2022-08-28T04:22:08.411Z,45.83
2022-08-28T04:24:39.325Z,44.22
2022-08-28T04:27:11.762Z,39.20
2022-08-28T04:29:41.652Z,43.58
2022-08-28T04:32:11.668Z,49.88
2022-08-28T04:34:41.920Z,44.75
2022-08-28T04:37:11.933Z,41.58
2022-08-28T04:39:42.127Z,40.80
2022-08-28T04:42:14.611Z,43.13
2022-08-28T04:44:44.699Z,36.53
2022-08-28T04:47:14.479Z,39.30
2022-08-28T04:49:44.426Z,35.85
2022-08-28T04:52:14.264Z,37.80
2022-08-28T04:54:44.094Z,37.75
2022-08-28T04:57:16.481Z,32.28
2022-08-28T04:59:46.790Z,39.53
2022-08-28T05:02:16.646Z,38.03
2022-08-28T05:04:47.334Z,34.13
2022-08-28T05:07:17.518Z,34.40
2022-08-28T05:09:47.355Z,41.58
2022-08-28T05:12:20.158Z,38.38
2022-08-28T05:14:50.859Z,34.97
2022-08-28T05:17:20.687Z,38.88
2022-08-28T05:19:50.806Z,37.67
2022-08-28T05:22:20.692Z,38.50
2022-08-28T05:24:50.550Z,34.25
2022-08-28T05:27:23.893Z,39.20
2022-08-28T05:29:56.317Z,44.67
2022-08-28T05:32:28.489Z,41.13
2022-08-28T05:34:58.462Z,34.55
2022-08-28T05:37:28.399Z,35.95
2022-08-28T05:39:58.304Z,38.72
2022-08-28T05:42:31.883Z,35.15
2022-08-28T05:45:03.751Z,36.92
2022-08-28T05:47:34.210Z,35.88
2022-08-28T05:50:04.119Z,35.00
2022-08-28T05:52:34.315Z,36.85
2022-08-28T05:55:05.354Z,32.63
2022-08-28T05:57:37.854Z,36.60
2022-08-28T06:00:09.983Z,33.78
2022-08-28T06:02:39.848Z,32.97
2022-08-28T06:05:13.008Z,28.05
2022-08-28T06:07:43.588Z,31.37
2022-08-28T06:10:13.469Z,28.45
2022-08-28T06:12:46.842Z,29.83
2022-08-28T06:15:16.702Z,35.97
2022-08-28T06:17:46.537Z,26.73
2022-08-28T06:20:16.574Z,28.33
2022-08-28T06:22:46.415Z,27.00
2022-08-28T06:25:16.210Z,29.52
2022-08-28T06:27:48.597Z,28.40
2022-08-28T06:30:18.659Z,27.25
2022-08-28T06:32:50.801Z,26.50
2022-08-28T06:35:22.138Z,26.38
2022-08-28T06:37:51.941Z,27.90
2022-08-28T06:40:21.912Z,28.48
2022-08-28T06:42:54.603Z,26.98
2022-08-28T06:45:24.437Z,24.90
2022-08-28T06:47:54.279Z,24.42
2022-08-28T06:50:24.848Z,27.88
2022-08-28T06:52:54.829Z,26.00
2022-08-28T06:55:24.723Z,27.52
2022-08-28T06:57:57.155Z,21.92
2022-08-28T07:00:27.012Z,26.60
2022-08-28T07:02:56.977Z,24.17
2022-08-28T07:05:26.805Z,22.88
2022-08-28T07:07:56.645Z,20.48
2022-08-28T07:10:26.566Z,24.75
2022-08-28T07:13:00.386Z,18.95
2022-08-28T07:15:30.332Z,25.73
2022-08-28T07:18:00.977Z,21.42
2022-08-28T07:20:30.866Z,19.83
2022-08-28T07:23:00.720Z,21.30
2022-08-28T07:25:30.645Z,24.45
2022-08-28T07:28:03.429Z,20.88
2022-08-28T07:30:33.268Z,20.52
2022-08-28T07:33:03.337Z,18.98
2022-08-28T07:35:33.121Z,22.85
2022-08-28T07:38:02.887Z,18.88
2022-08-28T07:40:34.193Z,21.02
2022-08-28T07:43:19.093Z,20.90
2022-08-28T07:45:48.949Z,15.98
2022-08-28T07:48:21.205Z,17.77
2022-08-28T07:50:51.356Z,18.33
2022-08-28T07:53:21.271Z,18.85
2022-08-28T07:55:52.849Z,16.98
2022-08-28T07:58:26.251Z,23.73
2022-08-28T08:00:56.739Z,16.40
2022-08-28T08:03:26.679Z,18.80
2022-08-28T08:05:57.888Z,17.48
2022-08-28T08:08:28.876Z,19.85
2022-08-28T08:11:03.744Z,15.68
2022-08-28T08:13:39.951Z,17.02
2022-08-28T08:16:12.055Z,15.02
2022-08-28T08:18:42.712Z,18.92
2022-08-28T08:21:15.990Z,14.63
2022-08-28T08:23:45.934Z,21.80
2022-08-28T08:26:19.227Z,20.67
2022-08-28T08:28:53.080Z,17.20
2022-08-28T08:31:26.731Z,17.10
2022-08-28T08:34:01.445Z,16.75
2022-08-28T08:36:32.730Z,17.75
2022-08-28T08:39:03.804Z,15.38
2022-08-28T08:41:43.627Z,15.38
2022-08-28T08:44:33.846Z,13.18
2022-08-28T08:47:14.621Z,18.77
2022-08-28T08:49:52.382Z,16.15
2022-08-28T08:52:37.612Z,15.93
2022-08-28T08:55:24.519Z,17.23
2022-08-28T08:58:01.861Z,16.42
2022-08-28T09:00:39.475Z,16.90
2022-08-28T09:03:16.111Z,17.33
2022-08-28T09:05:53.338Z,15.05
2022-08-28T09:08:34.223Z,16.45
2022-08-28T09:11:12.805Z,18.27
2022-08-28T09:13:50.596Z,14.00
2022-08-28T09:16:30.631Z,15.50
2022-08-28T09:19:01.842Z,15.73
2022-08-28T09:21:34.461Z,14.52
2022-08-28T09:24:10.892Z,14.80
2022-08-28T09:26:42.505Z,15.70
2022-08-28T09:29:28.587Z,13.48
2022-08-28T09:32:01.675Z,13.73
2022-08-28T09:34:38.571Z,15.48
2022-08-28T09:37:13.892Z,16.45
2022-08-28T09:39:48.669Z,13.27
2022-08-28T09:42:36.799Z,14.20
2022-08-28T09:45:09.809Z,13.85
2022-08-28T09:47:48.983Z,15.48
2022-08-28T09:50:23.543Z,12.65
2022-08-28T09:52:54.553Z,13.95
2022-08-28T09:55:33.274Z,16.00
2022-08-28T09:58:03.715Z,14.77
2022-08-28T10:00:39.579Z,14.70
2022-08-28T10:03:21.430Z,12.27
2022-08-28T10:06:00.834Z,15.82
2022-08-28T10:08:42.767Z,16.88
2022-08-28T10:11:21.027Z,13.15
2022-08-28T10:13:58.833Z,11.88
2022-08-28T10:16:37.484Z,13.68
2022-08-28T10:19:22.301Z,12.57
2022-08-28T10:21:59.002Z,12.82
2022-08-28T10:24:45.729Z,15.98
2022-08-28T10:27:31.657Z,13.85
2022-08-28T10:30:12.529Z,15.07
2022-08-28T10:33:06.192Z,10.45
2022-08-28T10:35:49.056Z,13.15
2022-08-28T10:38:22.351Z,10.30
2022-08-28T10:40:59.261Z,10.35
2022-08-28T10:43:34.769Z,12.02
2022-08-28T10:46:08.568Z,11.13
2022-08-28T10:48:46.368Z,12.98
2022-08-28T10:51:35.439Z,9.82
2022-08-28T10:54:10.557Z,12.80
2022-08-28T10:56:46.270Z,10.95
2022-08-28T10:59:28.251Z,12.38
2022-08-28T11:01:58.390Z,12.52
2022-08-28T11:04:29.333Z,10.57
2022-08-28T11:07:05.103Z,12.70
2022-08-28T11:09:38.721Z,10.45
2022-08-28T11:12:30.397Z,13.98
2022-08-28T11:15:00.425Z,8.82
2022-08-28T11:17:43.410Z,14.90
2022-08-28T11:20:20.572Z,9.02
2022-08-28T11:22:56.645Z,8.45
2022-08-28T11:25:32.700Z,12.68
2022-08-28T11:28:19.362Z,11.10
2022-08-28T11:30:50.717Z,8.90
2022-08-28T11:33:40.861Z,9.95
2022-08-28T11:36:13.966Z,11.18
2022-08-28T11:39:07.786Z,8.75
2022-08-28T11:41:39.893Z,9.20
2022-08-28T11:44:42.279Z,7.93
2022-08-28T11:47:56.734Z,10.70
2022-08-28T11:50:34.055Z,9.85
2022-08-28T11:53:29.546Z,10.63
2022-08-28T11:56:28.217Z,8.32
2022-08-28T11:59:13.705Z,10.50
2022-08-28T12:01:43.902Z,10.63
2022-08-28T12:04:16.246Z,8.18
2022-08-28T12:06:52.375Z,7.90
2022-08-28T12:09:38.946Z,10.23
2022-08-28T12:12:15.047Z,8.68
2022-08-28T12:15:10.767Z,8.73
2022-08-28T12:17:50.607Z,9.50
2022-08-28T12:20:37.601Z,11.57
2022-08-28T12:23:33.402Z,9.43
2022-08-28T12:26:05.701Z,12.93
2022-08-28T12:28:46.228Z,10.88
2022-08-28T12:31:58.449Z,8.35
2022-08-28T12:34:39.911Z,9.52
2022-08-28T12:37:51.065Z,7.53
2022-08-28T12:40:26.320Z,8.80
2022-08-28T12:42:58.671Z,7.40
2022-08-28T12:45:38.243Z,10.13
2022-08-28T12:48:19.369Z,10.10
2022-08-28T12:50:49.579Z,10.23
2022-08-28T12:53:20.910Z,7.65
2022-08-28T12:55:51.483Z,9.70
2022-08-28T12:58:33.343Z,7.60
2022-08-28T13:01:11.768Z,8.05
2022-08-28T13:03:50.011Z,8.30
2022-08-28T13:06:26.325Z,7.82
2022-08-28T13:09:02.179Z,8.40
2022-08-28T13:11:36.440Z,9.38
2022-08-28T13:14:08.425Z,10.07
2022-08-28T13:16:43.240Z,6.65
2022-08-28T13:19:16.102Z,8.35
2022-08-28T13:22:00.381Z,7.47
2022-08-28T13:24:43.559Z,9.68
2022-08-28T13:27:23.547Z,7.78
2022-08-28T13:30:09.044Z,9.20
2022-08-28T13:32:42.560Z,7.00
2022-08-28T13:35:33.466Z,5.65
2022-08-28T13:38:04.581Z,7.20
2022-08-28T13:43:27.920Z,6.88
2022-08-28T13:45:57.917Z,9.52
2022-08-28T13:48:31.425Z,6.85
2022-08-28T13:51:07.075Z,6.20
2022-08-28T13:53:37.681Z,6.78
2022-08-28T13:56:07.659Z,5.35
2022-08-28T13:58:37.537Z,9.52
2022-08-28T14:01:07.785Z,6.97
2022-08-28T14:03:38.421Z,7.00
2022-08-28T14:06:12.156Z,9.63
2022-08-28T14:08:43.367Z,6.32
2022-08-28T14:11:15.022Z,5.53
2022-08-28T14:13:47.409Z,6.50
2022-08-28T14:16:25.989Z,5.35
2022-08-28T14:19:03.929Z,7.25
2022-08-28T14:21:34.867Z,7.30
2022-08-28T14:24:06.588Z,7.30
2022-08-28T14:26:37.021Z,6.35
2022-08-28T14:29:10.120Z,8.05
2022-08-28T14:31:41.128Z,6.87
2022-08-28T14:34:15.635Z,5.22
2022-08-28T14:36:46.259Z,5.65
2022-08-28T14:39:16.935Z,11.98
2022-08-28T14:41:49.458Z,8.52
2022-08-28T14:44:19.236Z,6.03
2022-08-28T14:46:52.618Z,5.15
2022-08-28T14:49:30.467Z,5.45
2022-08-28T14:52:00.362Z,11.13
2022-08-28T14:54:30.272Z,5.85
2022-08-28T14:57:00.474Z,6.38
2022-08-28T14:59:32.507Z,4.97
2022-08-28T15:02:03.686Z,7.50
2022-08-28T15:04:38.065Z,8.77
2022-08-28T15:07:10.823Z,7.53
2022-08-28T15:09:43.140Z,6.63
2022-08-28T15:12:13.239Z,5.38
2022-08-28T15:14:54.882Z,5.88
2022-08-28T15:17:34.422Z,8.63
2022-08-28T15:20:11.814Z,5.88
2022-08-28T15:22:41.853Z,5.30
2022-08-28T15:25:11.752Z,9.50
2022-08-28T15:27:41.668Z,4.80
2022-08-28T15:30:12.756Z,4.88
2022-08-28T15:32:44.679Z,4.85
2022-08-28T15:35:17.131Z,5.47
2022-08-28T15:37:47.801Z,4.70
2022-08-28T15:40:30.248Z,5.95
2022-08-28T15:43:00.236Z,7.18
2022-08-28T15:45:30.316Z,6.45
2022-08-28T15:48:00.982Z,8.13
2022-08-28T15:50:33.481Z,4.90
2022-08-28T15:53:03.540Z,6.10
2022-08-28T15:55:36.966Z,6.53
2022-08-28T15:58:14.096Z,5.53
2022-08-28T16:00:44.756Z,5.25
2022-08-28T16:03:15.212Z,5.97
2022-08-28T16:05:49.361Z,8.55
2022-08-28T16:08:19.265Z,5.93
2022-08-28T16:10:50.784Z,4.82
2022-08-28T16:13:21.526Z,4.88
2022-08-28T16:15:51.845Z,5.22
2022-08-28T16:18:21.749Z,6.80
2022-08-28T16:20:54.153Z,5.35
2022-08-28T16:23:24.168Z,7.72
2022-08-28T16:25:54.098Z,5.45
2022-08-28T16:28:24.427Z,8.63
2022-08-28T16:30:57.460Z,6.85
2022-08-28T16:33:27.942Z,5.90
2022-08-28T16:36:01.755Z,6.22
2022-08-28T16:38:31.872Z,7.07
2022-08-28T16:41:01.875Z,5.05
2022-08-28T16:43:31.797Z,6.50
2022-08-28T16:46:01.702Z,5.05
2022-08-28T16:48:31.520Z,5.30
2022-08-28T16:51:03.962Z,5.88
2022-08-28T16:53:34.284Z,4.65
2022-08-28T16:56:04.384Z,5.70
2022-08-28T16:58:34.466Z,6.60
2022-08-28T17:01:04.779Z,5.97
2022-08-28T17:03:37.747Z,6.15
2022-08-28T17:06:13.993Z,6.60
2022-08-28T17:08:44.140Z,6.20
2022-08-28T17:11:14.437Z,9.68
2022-08-28T17:13:44.297Z,5.20
2022-08-28T17:16:15.138Z,5.53
2022-08-28T17:18:47.513Z,5.30
2022-08-28T17:21:37.841Z,3.97
2022-08-28T17:24:08.436Z,4.95
2022-08-28T17:26:38.253Z,6.10
2022-08-28T17:29:08.550Z,4.68
2022-08-28T17:31:38.590Z,5.88
2022-08-28T17:34:08.597Z,6.72
2022-08-28T17:36:43.742Z,6.40
2022-08-28T17:39:16.641Z,5.93
2022-08-28T17:41:46.470Z,10.13
2022-08-28T17:44:16.496Z,5.15
2022-08-28T17:46:46.448Z,5.40
2022-08-28T17:49:18.180Z,6.45
2022-08-28T17:51:51.141Z,4.50
2022-08-28T17:54:24.250Z,5.53
2022-08-28T17:56:56.137Z,6.40
2022-08-28T17:59:27.577Z,7.15
2022-08-28T18:01:57.518Z,5.00
2022-08-28T18:04:27.420Z,4.95
2022-08-28T18:06:59.846Z,5.63
2022-08-28T18:09:29.718Z,4.93
2022-08-28T18:11:59.501Z,8.85
2022-08-28T18:14:29.481Z,5.18
2022-08-28T18:16:59.346Z,5.25
2022-08-28T18:19:29.282Z,5.93
2022-08-28T18:22:01.784Z,5.88
2022-08-28T18:24:32.020Z,5.93
2022-08-28T18:27:02.405Z,6.63
2022-08-28T18:29:32.422Z,5.55
2022-08-28T18:32:02.612Z,6.00
2022-08-28T18:34:32.456Z,9.48
2022-08-28T18:37:05.071Z,6.75
2022-08-28T18:39:35.906Z,6.25
2022-08-28T18:42:05.984Z,6.50
2022-08-28T18:44:35.884Z,7.55
2022-08-28T18:47:06.463Z,5.53
2022-08-28T18:49:36.352Z,8.23
2022-08-28T18:52:09.013Z,4.85
2022-08-28T18:54:39.095Z,6.50
2022-08-28T18:57:11.686Z,6.40
2022-08-28T18:59:41.740Z,5.10
2022-08-28T19:02:11.752Z,7.25
2022-08-28T19:04:42.696Z,6.53
2022-08-28T19:07:15.223Z,8.85
2022-08-28T19:09:45.236Z,5.00
2022-08-28T19:12:15.057Z,9.40
2022-08-28T19:14:44.991Z,7.25
2022-08-28T19:17:19.154Z,8.77
2022-08-28T19:19:51.462Z,8.50
2022-08-28T19:22:25.287Z,6.25
2022-08-28T19:24:58.613Z,7.93
2022-08-28T19:27:28.687Z,9.65
2022-08-28T19:29:58.576Z,10.02
2022-08-28T19:32:28.374Z,6.25
2022-08-28T19:34:58.243Z,9.65
2022-08-28T19:37:30.713Z,9.50
2022-08-28T19:40:00.600Z,13.02
2022-08-28T19:42:30.691Z,7.05
2022-08-28T19:45:00.506Z,8.63
2022-08-28T19:47:35.469Z,11.73
2022-08-28T19:50:08.334Z,7.97
2022-08-28T19:52:41.825Z,7.70
2022-08-28T19:55:17.641Z,6.63
2022-08-28T19:57:49.491Z,6.80
2022-08-28T20:00:21.261Z,7.03
2022-08-28T20:02:52.445Z,8.55
2022-08-28T20:05:23.077Z,8.10
2022-08-28T20:07:55.472Z,11.13
2022-08-28T20:10:25.291Z,10.27
2022-08-28T20:12:55.378Z,5.95
2022-08-28T20:15:25.298Z,6.45
2022-08-28T20:17:55.139Z,7.57
2022-08-28T20:20:29.780Z,6.95
2022-08-28T20:23:02.649Z,7.93
2022-08-28T20:25:34.819Z,6.40
2022-08-28T20:28:05.495Z,10.20
2022-08-28T20:30:35.526Z,8.68
2022-08-28T20:33:05.530Z,7.00
2022-08-28T20:35:35.343Z,6.60
2022-08-28T20:38:07.814Z,9.18
2022-08-28T20:40:37.806Z,6.55
2022-08-28T20:43:07.708Z,7.38
2022-08-28T20:45:37.579Z,7.53
2022-08-28T20:48:07.902Z,7.38
2022-08-28T20:50:37.820Z,11.98
2022-08-28T20:53:10.263Z,8.07
2022-08-28T20:55:40.065Z,8.68
2022-08-28T20:58:09.969Z,6.07
2022-08-28T21:00:39.771Z,8.88
2022-08-28T21:03:12.193Z,11.25
2022-08-28T21:05:45.911Z,8.88
2022-08-28T21:08:21.388Z,9.18
2022-08-28T21:10:51.547Z,7.88
2022-08-28T21:13:22.317Z,7.07
2022-08-28T21:15:52.118Z,6.57
2022-08-28T21:18:21.937Z,8.90
2022-08-28T21:20:53.810Z,8.55
2022-08-28T21:23:26.695Z,8.68
2022-08-28T21:25:56.610Z,6.53
2022-08-28T21:28:26.450Z,8.27
2022-08-28T21:30:57.259Z,6.80
2022-08-28T21:33:27.298Z,7.30
2022-08-28T21:35:57.115Z,6.72
2022-08-28T21:38:29.549Z,7.63
2022-08-28T21:40:59.716Z,7.47
2022-08-28T21:43:31.580Z,9.70
2022-08-28T21:46:02.781Z,9.70
2022-08-28T21:48:35.633Z,10.93
2022-08-28T21:51:08.016Z,9.18
2022-08-28T21:53:41.652Z,7.90
2022-08-28T21:56:11.924Z,9.02
2022-08-28T21:58:41.696Z,8.52
2022-08-28T22:01:15.259Z,9.90
2022-08-28T22:03:46.008Z,12.52
2022-08-28T22:06:18.404Z,6.82
2022-08-28T22:08:51.071Z,10.57
2022-08-28T22:11:24.976Z,7.80
2022-08-28T22:13:55.552Z,8.68
2022-08-28T22:16:26.278Z,9.77
2022-08-28T22:18:56.735Z,12.30
2022-08-28T22:21:41.009Z,9.93
2022-08-28T22:24:15.219Z,8.57
2022-08-28T22:29:16.158Z,11.55
2022-08-28T22:31:46.378Z,10.25
2022-08-28T22:34:16.419Z,10.00
2022-08-28T22:36:46.238Z,8.13
2022-08-28T22:39:18.668Z,10.90
2022-08-28T22:41:48.564Z,8.80
2022-08-28T22:44:18.428Z,9.82
2022-08-28T22:46:48.265Z,8.52
2022-08-28T22:49:18.123Z,8.25
2022-08-28T22:51:47.986Z,11.57
2022-08-28T22:54:20.542Z,10.30
2022-08-28T22:56:50.502Z,9.38
2022-08-28T22:59:20.345Z,9.10
2022-08-28T23:01:50.206Z,12.20
2022-08-28T23:04:20.056Z,8.85
2022-08-28T23:06:50.135Z,10.88
2022-08-28T23:09:22.920Z,8.70
2022-08-28T23:11:52.719Z,8.82
2022-08-28T23:14:22.895Z,9.50
2022-08-28T23:16:55.041Z,9.75
2022-08-28T23:19:25.121Z,12.35
2022-08-28T23:21:55.491Z,12.95
2022-08-28T23:24:27.981Z,10.60
2022-08-28T23:27:09.375Z,13.13
2022-08-28T23:29:47.909Z,12.65
2022-08-28T23:32:23.340Z,11.68
2022-08-28T23:34:53.702Z,10.05
2022-08-28T23:37:23.514Z,10.23
2022-08-28T23:39:56.041Z,10.93
2022-08-28T23:42:27.873Z,10.18
2022-08-28T23:44:59.065Z,13.63
2022-08-28T23:47:28.973Z,13.40
2022-08-28T23:49:59.021Z,9.93
2022-08-28T23:52:28.919Z,12.90
2022-08-28T23:55:02.455Z,12.95
2022-08-28T23:57:35.658Z,10.40
